createdAt,value
2023-02-08T00:05:13.149Z,23.53
2023-02-08T00:15:17.782Z,22.83
2023-02-08T00:25:21.293Z,26.17
2023-02-08T00:47:13.106Z,24.43
2023-02-08T00:57:16.509Z,24.73
2023-02-08T01:07:21.111Z,26.40
2023-02-08T01:17:24.356Z,26.27
2023-02-08T01:27:28.902Z,25.73
2023-02-08T01:37:32.232Z,26.33
2023-02-08T01:47:36.960Z,25.67
2023-02-08T01:57:41.957Z,23.43
2023-02-08T02:07:47.298Z,23.03
2023-02-08T02:17:50.682Z,22.23
2023-02-08T02:28:16.753Z,21.80
2023-02-08T02:38:32.478Z,20.80
2023-02-08T02:48:42.778Z,21.77
2023-02-08T02:58:47.666Z,20.50
2023-02-08T03:09:24.127Z,20.80
2023-02-08T03:19:36.025Z,20.53
2023-02-08T03:29:45.149Z,20.10
2023-02-08T03:39:52.091Z,20.43
2023-02-08T03:49:59.680Z,20.97
2023-02-08T04:00:09.183Z,19.13
2023-02-08T04:10:15.183Z,17.37
2023-02-08T04:20:21.339Z,17.97
2023-02-08T04:30:24.641Z,17.90
2023-02-08T04:40:29.368Z,17.50
2023-02-08T04:50:32.556Z,17.50
2023-02-08T05:00:37.139Z,16.10
2023-02-08T05:10:45.983Z,16.97
2023-02-08T05:20:57.445Z,16.47
2023-02-08T05:31:00.731Z,17.17
2023-02-08T05:41:05.443Z,17.33
2023-02-08T05:51:08.668Z,17.33
2023-02-08T06:01:14.570Z,17.40
2023-02-08T06:11:19.235Z,18.07
2023-02-08T06:21:24.656Z,16.87
2023-02-08T06:31:28.115Z,16.83
2023-02-08T06:41:32.697Z,17.43
2023-02-08T06:51:35.861Z,18.10
2023-02-08T07:01:40.557Z,16.50
2023-02-08T07:11:44.439Z,17.47
2023-02-08T07:21:48.950Z,17.73
2023-02-08T07:31:52.143Z,17.80
2023-02-08T07:41:56.688Z,16.83
2023-02-08T07:52:00.596Z,17.37
2023-02-08T08:02:05.180Z,17.43
2023-02-08T08:12:08.632Z,17.50
2023-02-08T08:22:13.437Z,17.90
2023-02-08T08:32:16.711Z,18.07
2023-02-08T08:42:21.396Z,17.77
2023-02-08T08:52:25.048Z,17.50
2023-02-08T09:02:29.640Z,18.30
2023-02-08T09:12:32.856Z,19.10
2023-02-08T09:22:37.440Z,19.67
2023-02-08T09:32:40.770Z,17.67
2023-02-08T09:42:50.584Z,17.90
2023-02-08T09:53:05.287Z,17.63
2023-02-08T10:03:24.681Z,18.33
2023-02-08T10:13:45.950Z,19.23
2023-02-08T10:24:08.818Z,18.50
2023-02-08T10:34:21.181Z,18.33
2023-02-08T10:44:35.419Z,18.53
2023-02-08T10:54:38.719Z,18.67
2023-02-08T11:04:59.690Z,18.70
2023-02-08T11:15:03.244Z,19.27
2023-02-08T11:25:08.729Z,18.10
2023-02-08T11:35:20.659Z,19.07
2023-02-08T11:45:28.728Z,18.70
2023-02-08T11:55:34.079Z,18.37
2023-02-08T12:05:45.215Z,17.97
2023-02-08T12:16:01.386Z,17.17
2023-02-08T12:26:16.891Z,18.00
2023-02-08T12:36:45.986Z,17.60
2023-02-08T12:47:00.034Z,17.77
2023-02-08T12:57:06.493Z,17.60
2023-02-08T13:07:15.486Z,16.70
2023-02-08T13:17:22.909Z,17.30
2023-02-08T13:27:27.409Z,19.23
2023-02-08T13:37:33.121Z,18.33
2023-02-08T13:47:44.792Z,18.10
2023-02-08T13:57:53.646Z,17.23
2023-02-08T14:08:00.221Z,17.63
2023-02-08T14:18:04.089Z,17.93
2023-02-08T14:28:22.781Z,18.13
2023-02-08T14:39:06.988Z,17.17
2023-02-08T14:49:14.302Z,17.77
2023-02-08T14:59:21.808Z,17.43
2023-02-08T15:09:29.289Z,16.63
2023-02-08T15:19:35.573Z,18.70
2023-02-08T15:29:45.245Z,17.80
2023-02-08T15:39:53.707Z,18.50
2023-02-08T15:49:58.809Z,17.07
2023-02-08T16:00:02.968Z,17.73
2023-02-08T16:10:25.128Z,18.10
2023-02-08T16:20:33.342Z,18.23
2023-02-08T16:30:38.493Z,18.97
2023-02-08T16:40:51.325Z,19.80
2023-02-08T16:50:55.938Z,18.90
2023-02-08T17:01:00.149Z,18.57
2023-02-08T17:11:04.902Z,19.20
2023-02-08T17:21:09.487Z,19.30
2023-02-08T17:31:15.556Z,19.50
2023-02-08T17:41:21.026Z,19.30
2023-02-08T17:51:26.122Z,18.93
2023-02-08T18:01:29.370Z,20.10
2023-02-08T18:11:33.940Z,20.10
2023-02-08T18:21:37.408Z,21.30
2023-02-08T18:31:42.580Z,19.47
2023-02-08T18:41:45.858Z,21.37
2023-02-08T18:51:50.497Z,19.23
2023-02-08T19:01:53.784Z,20.73
2023-02-08T19:11:58.425Z,20.80
2023-02-08T19:22:01.678Z,21.27
2023-02-08T19:32:07.809Z,20.50
2023-02-08T19:42:11.061Z,20.40
2023-02-08T19:52:19.869Z,19.67
2023-02-08T20:02:24.964Z,22.27
2023-02-08T20:12:29.590Z,20.93
2023-02-08T20:22:32.832Z,21.90
2023-02-08T20:32:37.390Z,22.00
2023-02-08T20:42:40.650Z,22.17
2023-02-08T20:52:46.722Z,22.83
2023-02-08T21:02:49.994Z,20.80
2023-02-08T21:12:54.645Z,21.43
2023-02-08T21:22:57.927Z,21.27
2023-02-08T21:33:02.521Z,21.10
2023-02-08T21:43:05.774Z,22.07
2023-02-08T21:53:28.578Z,21.80
2023-02-08T22:03:31.810Z,23.00
2023-02-08T22:13:36.355Z,23.20
2023-02-08T22:23:39.538Z,23.67
2023-02-08T22:33:44.121Z,23.83
2023-02-08T22:43:47.582Z,22.13
2023-02-08T22:53:52.121Z,20.77
2023-02-08T23:03:55.299Z,22.37
2023-02-08T23:13:59.911Z,22.07
2023-02-08T23:24:03.162Z,23.47
2023-02-08T23:34:07.828Z,23.53
2023-02-08T23:44:11.110Z,21.97
2023-02-08T23:54:15.696Z,22.47
